createdAt,value
2023-03-27T00:03:06.832Z,30.07
2023-03-27T00:07:06.992Z,30.09
2023-03-27T00:11:07.215Z,30.09
2023-03-27T00:15:07.158Z,30.09
2023-03-27T00:19:07.129Z,30.10
2023-03-27T00:23:07.096Z,30.09
2023-03-27T00:27:07.082Z,30.09
2023-03-27T00:31:07.000Z,30.12
2023-03-27T00:35:06.976Z,30.11
2023-03-27T00:39:06.951Z,30.11
2023-03-27T00:43:06.921Z,30.13
2023-03-27T00:47:06.850Z,30.10
2023-03-27T00:51:06.904Z,30.13
2023-03-27T00:55:06.795Z,30.13
2023-03-27T00:59:06.773Z,30.11
2023-03-27T01:03:06.812Z,30.14
2023-03-27T01:07:06.691Z,30.13
2023-03-27T01:11:06.705Z,30.15
2023-03-27T01:15:06.622Z,30.14
2023-03-27T01:19:06.580Z,30.15
2023-03-27T01:23:06.570Z,30.13
2023-03-27T01:27:06.573Z,30.16
2023-03-27T01:31:06.577Z,30.14
2023-03-27T01:35:06.530Z,30.17
2023-03-27T01:39:06.505Z,30.18
2023-03-27T01:43:06.461Z,30.14
2023-03-27T01:47:06.412Z,30.17
2023-03-27T01:51:06.402Z,30.18
2023-03-27T01:55:06.383Z,30.15
2023-03-27T01:59:06.315Z,30.17
2023-03-27T02:03:06.274Z,30.19
2023-03-27T02:07:06.256Z,30.16
2023-03-27T02:11:06.200Z,30.16
2023-03-27T02:15:24.600Z,30.18
2023-03-27T02:19:07.270Z,30.21
2023-03-27T02:23:06.192Z,30.19
2023-03-27T02:27:06.402Z,30.18
2023-03-27T02:31:32.425Z,30.21
2023-03-27T02:35:07.546Z,30.20
2023-03-27T02:39:06.517Z,30.18
2023-03-27T02:43:06.667Z,30.20
2023-03-27T02:47:06.849Z,30.21
2023-03-27T02:51:07.090Z,30.20
2023-03-27T02:55:07.276Z,30.19
2023-03-27T02:59:07.440Z,30.21
2023-03-27T03:03:07.889Z,30.20
2023-03-27T03:07:07.874Z,30.20
2023-03-27T03:11:08.033Z,30.24
2023-03-27T03:15:08.296Z,30.21
2023-03-27T03:19:08.511Z,30.22
2023-03-27T03:23:08.692Z,30.25
2023-03-27T03:27:08.849Z,30.25
2023-03-27T03:31:09.114Z,30.25
2023-03-27T03:35:09.040Z,30.26
2023-03-27T03:39:09.016Z,30.25
2023-03-27T03:43:08.936Z,30.24
2023-03-27T03:47:08.961Z,30.23
2023-03-27T03:51:08.887Z,30.25
2023-03-27T03:55:08.864Z,30.24
2023-03-27T03:59:08.835Z,30.28
2023-03-27T04:03:08.965Z,30.28
2023-03-27T04:07:08.740Z,29.96
2023-03-27T04:11:08.715Z,29.89
2023-03-27T04:15:08.734Z,29.62
2023-03-27T04:19:08.661Z,29.45
2023-03-27T04:23:08.795Z,29.15
2023-03-27T04:27:08.869Z,29.02
2023-03-27T04:31:08.904Z,28.82
2023-03-27T04:35:08.879Z,28.91
2023-03-27T04:39:08.908Z,28.88
2023-03-27T04:43:08.976Z,28.86
2023-03-27T04:47:09.306Z,28.87
2023-03-27T04:55:09.228Z,28.92
2023-03-27T04:59:09.248Z,28.90
2023-03-27T05:03:09.362Z,28.91
2023-03-27T05:07:09.298Z,28.92
2023-03-27T05:11:09.266Z,28.94
2023-03-27T05:15:09.299Z,28.95
2023-03-27T05:19:09.334Z,29.02
2023-03-27T05:23:09.330Z,29.01
2023-03-27T05:27:09.278Z,29.00
2023-03-27T05:31:09.965Z,28.83
2023-03-27T05:35:09.470Z,28.74
2023-03-27T05:39:09.358Z,29.30
2023-03-27T05:43:11.345Z,29.88
2023-03-27T05:47:09.463Z,30.25
2023-03-27T05:51:09.807Z,30.98
2023-03-27T05:55:09.781Z,31.20
2023-03-27T05:59:09.712Z,31.48
2023-03-27T06:03:10.043Z,31.71
2023-03-27T06:07:10.125Z,31.95
2023-03-27T06:11:10.072Z,32.01
2023-03-27T06:15:10.163Z,32.03
2023-03-27T06:19:10.307Z,31.95
2023-03-27T06:23:09.959Z,31.96
2023-03-27T06:27:10.901Z,32.16
2023-03-27T06:31:09.992Z,32.01
2023-03-27T06:35:09.858Z,32.21
2023-03-27T06:39:09.929Z,29.57
2023-03-27T06:43:09.879Z,30.47
2023-03-27T06:47:09.804Z,31.02
2023-03-27T06:51:09.706Z,31.08
2023-03-27T06:55:14.651Z,31.06
2023-03-27T06:59:10.832Z,31.22
2023-03-27T07:03:09.926Z,31.16
2023-03-27T07:07:09.734Z,31.35
2023-03-27T07:11:12.195Z,31.25
2023-03-27T07:15:09.696Z,31.41
2023-03-27T07:19:09.691Z,31.55
2023-03-27T07:23:09.617Z,31.71
2023-03-27T07:27:09.567Z,31.76
2023-03-27T07:31:20.119Z,32.26
2023-03-27T07:35:10.486Z,31.91
2023-03-27T07:39:09.513Z,29.34
2023-03-27T07:43:09.673Z,28.77
2023-03-27T07:47:09.866Z,29.76
2023-03-27T07:51:13.711Z,29.65
2023-03-27T07:55:10.005Z,29.54
2023-03-27T07:59:09.992Z,29.51
2023-03-27T08:03:10.665Z,29.56
2023-03-27T08:07:09.938Z,29.65
2023-03-27T08:11:23.042Z,29.61
2023-03-27T08:15:10.816Z,29.68
2023-03-27T08:19:09.921Z,28.56
2023-03-27T08:23:09.755Z,27.77
2023-03-27T08:27:09.976Z,28.19
2023-03-27T08:31:10.194Z,27.81
2023-03-27T08:35:10.075Z,27.40
2023-03-27T08:39:10.133Z,28.47
2023-03-27T08:43:10.135Z,28.03
2023-03-27T08:47:10.273Z,28.55
2023-03-27T08:51:11.687Z,27.28
2023-03-27T08:55:10.415Z,27.59
2023-03-27T08:59:10.917Z,27.09
2023-03-27T09:03:10.952Z,26.90
2023-03-27T09:07:10.973Z,27.94
2023-03-27T09:11:11.156Z,28.15
2023-03-27T09:15:11.209Z,28.25
2023-03-27T09:19:11.206Z,28.34
2023-03-27T09:23:11.374Z,28.68
2023-03-27T09:27:11.941Z,28.56
2023-03-27T09:31:11.925Z,28.68
2023-03-27T09:35:11.935Z,27.18
2023-03-27T09:39:11.999Z,28.88
2023-03-27T09:43:12.446Z,29.33
2023-03-27T09:47:12.205Z,29.31
2023-03-27T09:51:12.397Z,29.08
2023-03-27T09:55:12.431Z,28.84
2023-03-27T09:59:12.655Z,28.80
2023-03-27T10:03:12.841Z,28.68
2023-03-27T10:07:12.851Z,28.64
2023-03-27T10:11:12.889Z,28.68
2023-03-27T10:15:12.972Z,28.77
2023-03-27T10:19:12.944Z,28.82
2023-03-27T10:23:13.429Z,28.99
2023-03-27T10:27:12.995Z,29.37
2023-03-27T10:31:13.083Z,26.48
2023-03-27T10:35:13.239Z,25.35
2023-03-27T10:39:13.397Z,24.92
2023-03-27T10:43:13.519Z,24.99
2023-03-27T10:47:13.717Z,24.97
2023-03-27T10:51:13.823Z,25.10
2023-03-27T10:55:13.912Z,25.08
2023-03-27T10:59:13.712Z,25.09
2023-03-27T11:03:13.740Z,25.01
2023-03-27T11:07:16.352Z,25.04
2023-03-27T11:11:13.660Z,25.09
2023-03-27T11:15:13.636Z,24.96
2023-03-27T11:19:13.532Z,25.40
2023-03-27T11:23:13.542Z,25.50
2023-03-27T11:27:14.623Z,25.47
2023-03-27T11:31:13.483Z,25.53
2023-03-27T11:35:13.404Z,25.56
2023-03-27T11:39:13.371Z,25.57
2023-03-27T11:43:13.333Z,25.62
2023-03-27T11:47:13.897Z,25.62
2023-03-27T11:51:13.235Z,25.64
2023-03-27T11:55:13.240Z,25.70
2023-03-27T11:59:13.266Z,25.63
2023-03-27T12:03:13.240Z,25.67
2023-03-27T12:07:13.329Z,25.75
2023-03-27T12:11:13.173Z,25.85
2023-03-27T12:15:13.200Z,25.97
2023-03-27T12:19:27.784Z,26.09
2023-03-27T12:23:14.205Z,26.25
2023-03-27T12:27:13.297Z,26.27
2023-03-27T12:31:13.210Z,26.23
2023-03-27T12:35:13.164Z,26.33
2023-03-27T12:39:13.126Z,26.36
2023-03-27T12:43:13.050Z,26.40
2023-03-27T12:47:13.157Z,26.37
2023-03-27T12:51:13.258Z,26.39
2023-03-27T12:55:13.270Z,26.44
2023-03-27T12:59:13.399Z,26.44
2023-03-27T13:03:13.499Z,26.48
2023-03-27T13:07:13.521Z,26.49
2023-03-27T13:11:13.621Z,26.49
2023-03-27T13:15:13.688Z,26.41
2023-03-27T13:19:13.750Z,26.46
2023-03-27T13:23:13.808Z,26.44
2023-03-27T13:27:13.884Z,26.40
2023-03-27T13:31:13.966Z,26.50
2023-03-27T13:35:13.894Z,26.41
2023-03-27T13:39:13.968Z,26.43
2023-03-27T13:43:13.994Z,26.35
2023-03-27T13:47:13.962Z,26.37
2023-03-27T13:51:13.992Z,26.31
2023-03-27T13:55:13.982Z,26.30
2023-03-27T13:59:14.331Z,26.25
2023-03-27T14:03:14.157Z,26.24
2023-03-27T14:07:13.953Z,26.26
2023-03-27T14:11:13.975Z,26.29
2023-03-27T14:15:13.994Z,26.35
2023-03-27T14:19:13.987Z,26.40
2023-03-27T14:23:13.948Z,26.47
2023-03-27T14:27:14.044Z,26.53
2023-03-27T14:31:13.973Z,26.60
2023-03-27T14:35:13.942Z,26.63
2023-03-27T14:39:13.988Z,26.60
2023-03-27T14:43:13.917Z,26.58
2023-03-27T14:47:13.913Z,26.56
2023-03-27T14:51:13.991Z,26.55
2023-03-27T14:55:14.074Z,26.53
2023-03-27T14:59:14.140Z,26.55
2023-03-27T15:03:14.162Z,26.59
2023-03-27T15:07:14.158Z,26.58
2023-03-27T15:11:14.203Z,26.64
2023-03-27T15:15:14.219Z,26.65
2023-03-27T15:19:14.238Z,26.67
2023-03-27T15:23:14.164Z,26.68
2023-03-27T15:27:14.187Z,26.68
2023-03-27T15:31:14.206Z,26.74
2023-03-27T15:35:14.148Z,26.78
2023-03-27T15:39:14.167Z,26.70
2023-03-27T15:43:14.191Z,26.68
2023-03-27T15:47:15.083Z,26.68
2023-03-27T15:51:14.174Z,26.69
2023-03-27T15:55:14.189Z,26.73
2023-03-27T15:59:14.116Z,26.80
2023-03-27T16:03:14.172Z,26.80
2023-03-27T16:07:14.078Z,26.85
2023-03-27T16:11:14.106Z,26.88
2023-03-27T16:15:14.111Z,26.97
2023-03-27T16:19:14.154Z,27.00
2023-03-27T16:23:14.208Z,26.90
2023-03-27T16:27:14.214Z,27.02
2023-03-27T16:31:14.311Z,27.07
2023-03-27T16:35:14.333Z,27.17
2023-03-27T16:39:14.416Z,27.19
2023-03-27T16:43:14.532Z,27.26
2023-03-27T16:47:14.623Z,27.26
2023-03-27T16:51:14.823Z,27.28
2023-03-27T16:55:14.890Z,27.28
2023-03-27T16:59:15.017Z,27.32
2023-03-27T17:03:15.190Z,27.34
2023-03-27T17:07:15.295Z,27.31
2023-03-27T17:11:15.430Z,27.35
2023-03-27T17:15:15.526Z,27.38
2023-03-27T17:19:15.702Z,27.38
2023-03-27T17:23:15.833Z,27.42
2023-03-27T17:27:16.061Z,27.44
2023-03-27T17:31:16.295Z,27.45
2023-03-27T17:35:16.393Z,27.47
2023-03-27T17:39:16.602Z,27.46
2023-03-27T17:43:16.781Z,27.48
2023-03-27T17:47:17.095Z,27.47
2023-03-27T17:51:17.242Z,27.50
2023-03-27T17:55:17.193Z,27.53
2023-03-27T17:59:17.215Z,27.49
2023-03-27T18:03:17.252Z,27.58
2023-03-27T18:07:17.155Z,27.59
2023-03-27T18:11:17.107Z,27.61
2023-03-27T18:15:17.071Z,27.61
2023-03-27T18:19:17.026Z,27.63
2023-03-27T18:23:16.958Z,27.66
2023-03-27T18:27:16.951Z,27.66
2023-03-27T18:31:16.886Z,27.88
2023-03-27T18:35:17.013Z,27.85
2023-03-27T18:39:17.163Z,27.77
2023-03-27T18:43:17.439Z,27.66
2023-03-27T18:47:17.425Z,27.56
2023-03-27T18:51:18.165Z,27.52
2023-03-27T18:55:17.843Z,27.38
2023-03-27T18:59:18.023Z,27.31
2023-03-27T19:03:18.297Z,27.18
2023-03-27T19:07:18.283Z,27.13
2023-03-27T19:11:19.184Z,27.23
2023-03-27T19:15:20.381Z,27.23
2023-03-27T19:19:18.790Z,27.22
2023-03-27T19:23:18.966Z,27.27
2023-03-27T19:27:23.758Z,27.27
2023-03-27T19:31:20.102Z,27.25
2023-03-27T19:35:18.985Z,27.30
2023-03-27T19:39:18.967Z,27.35
2023-03-27T19:43:18.978Z,27.39
2023-03-27T19:47:18.915Z,27.39
2023-03-27T19:51:18.882Z,27.42
2023-03-27T19:55:18.867Z,27.48
2023-03-27T19:59:29.826Z,27.54
2023-03-27T20:03:19.871Z,27.54
2023-03-27T20:07:18.772Z,27.59
2023-03-27T20:11:18.734Z,27.63
2023-03-27T20:15:18.748Z,27.67
2023-03-27T20:19:19.410Z,27.68
2023-03-27T20:23:18.661Z,27.71
2023-03-27T20:27:18.571Z,27.76
2023-03-27T20:31:18.620Z,27.76
2023-03-27T20:35:24.214Z,27.81
2023-03-27T20:39:19.666Z,27.83
2023-03-27T20:43:18.467Z,27.87
2023-03-27T20:47:18.414Z,27.87
2023-03-27T20:51:18.368Z,27.92
2023-03-27T20:55:30.447Z,27.93
2023-03-27T20:59:19.305Z,27.94
2023-03-27T21:03:18.311Z,27.99
2023-03-27T21:07:18.272Z,28.01
2023-03-27T21:11:18.353Z,28.04
2023-03-27T21:15:18.387Z,28.04
2023-03-27T21:19:18.460Z,28.09
2023-03-27T21:23:18.550Z,28.12
2023-03-27T21:27:18.575Z,28.10
2023-03-27T21:31:18.614Z,28.11
2023-03-27T21:35:18.700Z,28.13
2023-03-27T21:39:18.758Z,28.18
2023-03-27T21:43:18.787Z,28.19
2023-03-27T21:47:18.852Z,28.21
2023-03-27T21:51:18.957Z,28.23
2023-03-27T21:55:18.970Z,28.25
2023-03-27T21:59:19.112Z,28.25
2023-03-27T22:03:19.126Z,28.28
2023-03-27T22:07:19.204Z,28.30
2023-03-27T22:11:19.283Z,28.28
2023-03-27T22:15:19.356Z,28.32
2023-03-27T22:19:19.501Z,28.33
2023-03-27T22:23:19.547Z,28.35
2023-03-27T22:27:19.820Z,28.37
2023-03-27T22:31:19.738Z,28.40
2023-03-27T22:35:19.778Z,28.41
2023-03-27T22:39:19.919Z,28.45
2023-03-27T22:43:22.558Z,28.44
2023-03-27T22:47:19.987Z,28.45
2023-03-27T22:51:19.948Z,28.48
2023-03-27T22:55:19.889Z,28.49
2023-03-27T22:59:19.905Z,28.49
2023-03-27T23:03:19.954Z,28.52
2023-03-27T23:07:19.761Z,28.52
2023-03-27T23:11:19.765Z,28.56
2023-03-27T23:15:30.280Z,28.56
2023-03-27T23:19:20.733Z,28.56
2023-03-27T23:23:19.640Z,28.58
2023-03-27T23:27:19.622Z,28.59
2023-03-27T23:31:19.723Z,28.60
2023-03-27T23:35:19.823Z,28.59
2023-03-27T23:39:20.188Z,28.62
2023-03-27T23:43:20.151Z,28.64
2023-03-27T23:47:20.274Z,28.65
2023-03-27T23:51:20.420Z,28.65
2023-03-27T23:55:20.601Z,28.66
2023-03-27T23:59:20.762Z,28.69
